Terminal Aerodrome Forecast
Issued by NWS Grand Forks, ND

Home | Current Version | Previous Version | Text Only | Print | Product List | Glossary On
Versions: 1 2 3 4 5 6 7 8 9 10 11 12 13 14 15 16 17 18 19 20 21 22
414
FTUS43 KFGF 212339
TAFGFK
TAF
KGFK 212339Z 2200/2224 32005KT 1/2SM FG OVC003
      TEMPO 2200/2204 1/4SM FG OVC002
     FM220600 01005KT 1 1/2SM -RASN BR OVC003
     FM221700 36014G22KT P6SM OVC003
     FM222200 35015G23KT P6SM OVC010=

USA.gov is the U.S. government's official web portal to all federal, state and local government web resources and services.